Time;durP1;ratioP1;P1;durP2;ratioP2;P2;SDS_P1;SDS_P2;PMS_P1;PMS_P2;Temp;Humidity;BMP_temperature;BMP_pressure;BME280_temperature;BME280_humidity;BME280_pressure;Samples;Min_cycle;Max_cycle;Signal;HPM_P1;HPM_P2
2023/08/18 00:00:11;;;;;;;12.15;2.92;;;17.30;95.90;;;;;;5029850;28;20115;-83
2023/08/18 00:02:39;;;;;;;9.88;3.42;;;17.30;96.50;;;;;;5026095;28;20065;-85
2023/08/18 00:05:07;;;;;;;6.25;2.95;;;17.30;97.00;;;;;;5025614;28;20065;-85
2023/08/18 00:07:34;;;;;;;7.10;2.60;;;17.30;97.40;;;;;;5009389;28;20049;-85
2023/08/18 00:10:02;;;;;;;6.93;3.40;;;17.30;98.20;;;;;;5020920;28;20125;-84
2023/08/18 00:12:29;;;;;;;11.60;3.53;;;17.20;98.40;;;;;;5008642;28;20068;-85
2023/08/18 00:14:56;;;;;;;7.28;3.35;;;17.20;98.70;;;;;;5027783;28;20569;-85
2023/08/18 00:17:23;;;;;;;11.13;3.40;;;17.20;99.00;;;;;;5024730;28;20073;-85
2023/08/18 00:19:50;;;;;;;10.57;3.30;;;17.10;99.50;;;;;;5017498;28;20137;-85
2023/08/18 00:22:17;;;;;;;8.52;3.22;;;17.10;99.70;;;;;;5023724;28;20050;-85
2023/08/18 00:24:44;;;;;;;6.80;3.22;;;17.10;100.00;;;;;;5024967;28;20811;-85
2023/08/18 00:27:11;;;;;;;14.95;3.78;;;17.00;100.00;;;;;;5027839;28;20478;-85
2023/08/18 00:29:39;;;;;;;7.65;3.40;;;17.00;100.00;;;;;;5011552;28;20049;-85
2023/08/18 00:32:06;;;;;;;8.05;3.47;;;17.00;100.00;;;;;;5019780;28;20045;-85
2023/08/18 00:34:32;;;;;;;12.93;3.35;;;17.00;100.00;;;;;;5028404;28;20773;-85
2023/08/18 00:36:59;;;;;;;8.32;3.60;;;16.90;100.00;;;;;;5015500;28;20067;-85
2023/08/18 00:39:26;;;;;;;16.35;4.03;;;16.90;100.00;;;;;;5023260;28;20128;-85
2023/08/18 00:41:53;;;;;;;12.25;3.58;;;16.90;100.00;;;;;;5008975;28;20097;-85
2023/08/18 00:44:20;;;;;;;8.60;3.53;;;16.80;100.00;;;;;;5028635;28;20906;-85
2023/08/18 00:46:47;;;;;;;9.00;3.55;;;16.80;100.00;;;;;;5028568;28;20140;-85
2023/08/18 00:49:16;;;;;;;15.35;4.20;;;16.80;100.00;;;;;;5026269;28;20053;-86
2023/08/18 00:51:44;;;;;;;7.53;4.20;;;16.80;100.00;;;;;;5028820;28;20115;-85
2023/08/18 00:54:12;;;;;;;15.52;4.90;;;16.80;100.00;;;;;;5007753;28;20494;-85
2023/08/18 00:56:40;;;;;;;10.45;4.70;;;16.80;100.00;;;;;;5006975;28;20045;-85
2023/08/18 00:59:07;;;;;;;11.57;4.00;;;16.80;100.00;;;;;;5021924;28;20103;-85
2023/08/18 01:01:34;;;;;;;11.85;4.00;;;16.80;100.00;;;;;;5012166;28;20053;-85
2023/08/18 01:04:02;;;;;;;17.13;4.50;;;16.80;100.00;;;;;;5004465;28;20470;-85
2023/08/18 01:06:29;;;;;;;10.65;4.82;;;16.90;100.00;;;;;;5020808;28;20103;-85
2023/08/18 01:08:56;;;;;;;9.98;4.10;;;16.90;100.00;;;;;;5004825;28;20053;-85
2023/08/18 01:11:41;;;;;;;12.45;3.70;;;16.80;100.00;;;;;;5010647;28;20052;-85
2023/08/18 01:14:32;;;;;;;10.50;4.20;;;16.90;100.00;;;;;;5020212;28;20050;-85
2023/08/18 01:17:08;;;;;;;12.98;5.22;;;16.90;100.00;;;;;;5005051;28;20053;-85
2023/08/18 01:19:35;;;;;;;7.60;4.28;;;16.90;100.00;;;;;;5016091;28;20132;-85
2023/08/18 01:22:06;;;;;;;9.30;4.40;;;16.90;100.00;;;;;;5009745;28;20068;-86
2023/08/18 01:24:32;;;;;;;7.72;4.82;;;16.90;100.00;;;;;;5022539;28;20050;-86
2023/08/18 01:26:59;;;;;;;7.55;4.05;;;16.90;100.00;;;;;;5018204;28;20132;-85
2023/08/18 01:29:27;;;;;;;12.77;4.88;;;16.90;100.00;;;;;;5018942;28;20045;-85
2023/08/18 01:31:59;;;;;;;13.32;4.55;;;16.90;100.00;;;;;;5026637;28;20064;-84
2023/08/18 01:34:28;;;;;;;10.73;4.22;;;16.90;100.00;;;;;;5011580;28;20684;-85
2023/08/18 01:36:57;;;;;;;12.45;4.88;;;16.90;100.00;;;;;;5018773;28;20050;-85
2023/08/18 01:39:27;;;;;;;9.48;4.38;;;16.90;100.00;;;;;;5031414;28;20053;-85
2023/08/18 01:41:54;;;;;;;18.33;4.50;;;16.90;100.00;;;;;;5014712;28;20472;-85
2023/08/18 01:44:21;;;;;;;10.00;4.93;;;16.90;100.00;;;;;;5031212;28;20049;-85
2023/08/18 01:46:48;;;;;;;8.45;4.35;;;16.90;100.00;;;;;;5001529;28;20137;-85
2023/08/18 01:49:15;;;;;;;12.52;4.80;;;16.90;100.00;;;;;;5024415;28;20041;-85
2023/08/18 01:51:42;;;;;;;13.50;5.00;;;16.90;100.00;;;;;;5014505;28;20053;-85
2023/08/18 01:54:09;;;;;;;9.68;4.80;;;16.90;100.00;;;;;;5017993;28;20073;-84
2023/08/18 01:56:36;;;;;;;11.32;4.60;;;16.90;100.00;;;;;;5018234;28;20045;-85
2023/08/18 01:59:04;;;;;;;9.88;4.32;;;16.90;100.00;;;;;;5005574;28;20836;-85
2023/08/18 02:01:31;;;;;;;10.90;4.65;;;16.90;100.00;;;;;;5016333;28;20050;-85
2023/08/18 02:03:58;;;;;;;16.08;5.88;;;17.00;100.00;;;;;;5012678;28;20054;-85
2023/08/18 02:06:25;;;;;;;12.27;4.93;;;17.00;100.00;;;;;;5027040;28;20054;-85
2023/08/18 02:08:52;;;;;;;18.38;4.88;;;17.00;100.00;;;;;;5002975;28;20562;-84
2023/08/18 02:11:19;;;;;;;10.75;5.15;;;17.00;100.00;;;;;;5016369;28;20100;-85
2023/08/18 02:13:46;;;;;;;13.10;4.95;;;17.00;100.00;;;;;;5022323;28;20053;-85
2023/08/18 02:16:13;;;;;;;15.93;5.22;;;17.00;100.00;;;;;;5028464;28;20667;-85
2023/08/18 02:18:40;;;;;;;14.02;4.70;;;17.00;100.00;;;;;;5027457;28;20060;-85
2023/08/18 02:21:07;;;;;;;10.10;4.57;;;17.00;100.00;;;;;;5019813;28;20160;-85
2023/08/18 02:23:34;;;;;;;11.93;4.85;;;17.00;100.00;;;;;;5011333;28;20127;-85
2023/08/18 02:26:05;;;;;;;16.27;4.82;;;17.00;100.00;;;;;;5030713;28;20577;-85
2023/08/18 02:28:33;;;;;;;10.18;4.60;;;16.90;100.00;;;;;;5031865;28;20049;-85
2023/08/18 02:31:05;;;;;;;15.52;5.20;;;16.90;100.00;;;;;;5027320;28;20046;-84
2023/08/18 02:33:33;;;;;;;13.20;5.00;;;16.90;100.00;;;;;;4997711;28;20104;-85
2023/08/18 02:36:01;;;;;;;13.70;5.18;;;16.90;100.00;;;;;;5023192;28;20051;-84
2023/08/18 02:38:29;;;;;;;12.02;4.85;;;16.90;100.00;;;;;;5002870;28;20049;-84
2023/08/18 02:40:56;;;;;;;11.55;5.50;;;16.90;100.00;;;;;;5018827;28;20541;-85
2023/08/18 02:43:23;;;;;;;10.73;5.45;;;16.90;100.00;;;;;;5012800;28;20135;-85
2023/08/18 02:45:57;;;;;;;11.90;5.03;;;16.90;100.00;;;;;;5013674;28;20049;-84
2023/08/18 02:48:29;;;;;;;10.05;5.20;;;16.80;100.00;;;;;;5013408;28;20099;-84
2023/08/18 02:51:09;;;;;;;12.20;5.13;;;16.80;100.00;;;;;;5011955;28;20844;-84
2023/08/18 02:53:39;;;;;;;12.73;5.20;;;16.70;100.00;;;;;;5020161;28;20063;-84
2023/08/18 02:56:07;;;;;;;11.68;5.45;;;16.70;100.00;;;;;;5031090;28;20140;-84
2023/08/18 02:58:34;;;;;;;10.95;5.15;;;16.70;100.00;;;;;;5027097;28;20142;-84
2023/08/18 03:01:04;;;;;;;10.10;4.80;;;16.70;100.00;;;;;;5009734;28;20099;-84
2023/08/18 03:03:31;;;;;;;16.67;5.38;;;16.60;100.00;;;;;;5014828;28;20113;-84
2023/08/18 03:06:03;;;;;;;8.07;4.95;;;16.60;100.00;;;;;;5031175;28;20788;-85
2023/08/18 03:08:30;;;;;;;11.43;5.75;;;16.60;100.00;;;;;;5014330;28;20107;-84
2023/08/18 03:10:58;;;;;;;15.85;5.32;;;16.50;100.00;;;;;;5011779;28;20085;-85
2023/08/18 03:13:26;;;;;;;17.70;5.68;;;16.50;100.00;;;;;;4996022;28;20057;-84
2023/08/18 03:15:53;;;;;;;10.25;5.07;;;16.50;100.00;;;;;;5002292;28;20081;-84
2023/08/18 03:18:20;;;;;;;14.48;5.60;;;16.50;100.00;;;;;;5026831;28;20049;-85
2023/08/18 03:20:48;;;;;;;16.83;5.93;;;16.50;100.00;;;;;;5007988;28;20116;-84
2023/08/18 03:23:17;;;;;;;13.43;5.72;;;16.50;100.00;;;;;;5012578;28;20045;-84
2023/08/18 03:25:44;;;;;;;15.25;6.18;;;16.40;100.00;;;;;;5020778;28;20053;-85
2023/08/18 03:28:11;;;;;;;16.38;5.47;;;16.40;100.00;;;;;;5027618;28;20572;-84
2023/08/18 03:30:39;;;;;;;16.70;5.80;;;16.50;100.00;;;;;;5026778;28;20104;-84
2023/08/18 03:33:06;;;;;;;16.38;5.82;;;16.40;100.00;;;;;;5028921;28;20077;-84
2023/08/18 03:35:38;;;;;;;19.15;6.10;;;16.50;100.00;;;;;;5029534;28;20064;-84
2023/08/18 03:38:05;;;;;;;12.43;5.63;;;16.50;100.00;;;;;;5010360;28;20084;-84
2023/08/18 03:40:32;;;;;;;16.48;7.13;;;16.50;100.00;;;;;;5012929;28;20413;-84
2023/08/18 03:42:59;;;;;;;15.48;5.97;;;16.50;100.00;;;;;;5020688;28;20082;-84
2023/08/18 03:45:27;;;;;;;15.52;6.03;;;16.50;100.00;;;;;;5006715;28;20081;-84
2023/08/18 03:47:55;;;;;;;17.98;6.63;;;16.50;100.00;;;;;;5029616;28;20103;-84
2023/08/18 03:50:22;;;;;;;16.08;6.18;;;16.50;100.00;;;;;;5026021;28;20073;-84
2023/08/18 03:52:48;;;;;;;21.85;8.73;;;16.50;100.00;;;;;;5022005;28;20089;-84
2023/08/18 03:55:16;;;;;;;13.32;6.57;;;16.40;100.00;;;;;;5002830;28;20052;-84
2023/08/18 03:57:43;;;;;;;11.00;6.28;;;16.40;100.00;;;;;;5025624;28;20068;-84
2023/08/18 04:00:11;;;;;;;13.00;6.72;;;16.40;100.00;;;;;;5013206;28;20052;-84
2023/08/18 04:02:38;;;;;;;12.82;5.88;;;16.30;100.00;;;;;;5026410;28;20053;-84
2023/08/18 04:05:06;;;;;;;11.30;5.35;;;16.30;100.00;;;;;;5009369;28;20062;-84
2023/08/18 04:07:32;;;;;;;12.98;5.43;;;16.30;100.00;;;;;;5018562;28;20502;-84
2023/08/18 04:09:59;;;;;;;16.60;6.75;;;16.30;100.00;;;;;;5018703;28;20049;-84
2023/08/18 04:12:26;;;;;;;12.43;5.88;;;16.30;100.00;;;;;;5014431;28;20049;-84
2023/08/18 04:14:54;;;;;;;15.25;6.43;;;16.30;100.00;;;;;;5029949;28;20053;-84
2023/08/18 04:17:21;;;;;;;22.67;6.82;;;16.30;100.00;;;;;;5012585;28;20400;-84
2023/08/18 04:19:49;;;;;;;18.70;7.13;;;16.30;100.00;;;;;;5024957;28;20050;-83
2023/08/18 04:22:16;;;;;;;22.20;7.13;;;16.40;100.00;;;;;;5023673;28;20042;-85
2023/08/18 04:24:44;;;;;;;14.05;6.03;;;16.40;100.00;;;;;;5020195;28;20110;-84
2023/08/18 04:27:11;;;;;;;14.65;6.85;;;16.40;100.00;;;;;;5016166;28;20037;-84
2023/08/18 04:29:37;;;;;;;13.38;6.65;;;16.40;100.00;;;;;;5012826;28;20049;-85
2023/08/18 04:32:05;;;;;;;19.42;6.82;;;16.50;100.00;;;;;;5023919;28;20077;-84
2023/08/18 04:34:33;;;;;;;18.33;7.65;;;16.50;100.00;;;;;;5022116;28;20061;-84
2023/08/18 04:37:00;;;;;;;14.15;6.75;;;16.60;100.00;;;;;;5016260;28;20054;-84
2023/08/18 04:39:27;;;;;;;15.13;7.03;;;16.60;100.00;;;;;;5007706;28;20049;-84
2023/08/18 04:41:54;;;;;;;16.15;7.57;;;16.60;100.00;;;;;;5009457;28;20053;-84
2023/08/18 04:44:20;;;;;;;17.73;7.50;;;16.60;100.00;;;;;;5012688;28;20052;-85
2023/08/18 04:46:47;;;;;;;15.50;7.35;;;16.70;100.00;;;;;;5005298;28;20133;-84
2023/08/18 04:49:14;;;;;;;17.67;7.03;;;16.70;100.00;;;;;;5007877;28;20056;-84
2023/08/18 04:51:41;;;;;;;17.63;7.72;;;16.70;100.00;;;;;;5004675;28;20511;-84
2023/08/18 04:54:08;;;;;;;18.02;7.80;;;16.70;100.00;;;;;;5024587;28;20076;-83
2023/08/18 04:56:35;;;;;;;16.30;7.40;;;16.70;100.00;;;;;;5008250;28;20053;-83
2023/08/18 04:59:02;;;;;;;20.00;8.27;;;16.80;100.00;;;;;;5011355;28;20068;-84
2023/08/18 05:01:29;;;;;;;23.67;7.93;;;16.80;100.00;;;;;;5022984;28;20410;-80
2023/08/18 05:03:57;;;;;;;19.85;7.95;;;16.80;100.00;;;;;;5008903;28;20112;-83
2023/08/18 05:06:24;;;;;;;15.75;7.82;;;16.90;100.00;;;;;;5021638;28;20054;-85
2023/08/18 05:08:51;;;;;;;20.02;8.18;;;16.90;100.00;;;;;;5028047;28;20120;-83
2023/08/18 05:11:18;;;;;;;21.92;7.72;;;16.90;100.00;;;;;;5011775;28;20041;-79
2023/08/18 05:13:45;;;;;;;17.15;8.02;;;17.00;100.00;;;;;;5009577;28;20053;-83
2023/08/18 05:16:11;;;;;;;17.20;8.13;;;17.00;100.00;;;;;;5029670;28;20133;-84
2023/08/18 05:18:38;;;;;;;24.10;8.63;;;17.10;100.00;;;;;;5025257;28;20060;-83
2023/08/18 05:21:05;;;;;;;16.42;8.35;;;17.20;100.00;;;;;;5008158;28;20053;-78
2023/08/18 05:23:32;;;;;;;20.17;8.75;;;17.30;100.00;;;;;;5024682;28;20091;-79
2023/08/18 05:25:59;;;;;;;19.90;8.55;;;17.30;100.00;;;;;;4998769;28;20053;-79
2023/08/18 05:28:28;;;;;;;18.33;8.15;;;17.40;100.00;;;;;;5002355;28;20038;-81
2023/08/18 05:30:56;;;;;;;24.42;9.57;;;17.60;100.00;;;;;;5021431;28;20050;-84
2023/08/18 05:33:23;;;;;;;16.98;7.68;;;17.70;100.00;;;;;;4993916;28;20628;-79
2023/08/18 05:35:50;;;;;;;16.90;7.88;;;17.80;100.00;;;;;;5014203;28;20054;-81
2023/08/18 05:38:17;;;;;;;21.83;7.22;;;17.90;100.00;;;;;;5018514;28;20085;-79
2023/08/18 05:40:48;;;;;;;15.02;8.15;;;17.90;100.00;;;;;;5016306;28;20437;-82
2023/08/18 05:43:18;;;;;;;18.83;7.97;;;18.00;100.00;;;;;;5025700;28;20045;-82
2023/08/18 05:45:47;;;;;;;23.02;7.68;;;18.10;100.00;;;;;;5011465;28;20145;-82
2023/08/18 05:48:14;;;;;;;15.68;6.97;;;18.10;100.00;;;;;;5026728;28;20670;-77
2023/08/18 05:50:43;;;;;;;14.43;6.78;;;18.20;100.00;;;;;;5017659;28;20065;-77
2023/08/18 05:53:10;;;;;;;17.27;7.20;;;18.30;100.00;;;;;;5013359;28;20068;-76
2023/08/18 05:55:36;;;;;;;10.77;6.18;;;18.50;100.00;;;;;;4989425;28;20409;-76
2023/08/18 05:58:04;;;;;;;23.20;7.53;;;18.70;100.00;;;;;;5015604;28;20910;-77
2023/08/18 06:00:31;;;;;;;16.05;7.28;;;18.80;100.00;;;;;;5014950;28;20073;-82
2023/08/18 06:02:59;;;;;;;13.50;6.82;;;18.90;99.80;;;;;;5013834;28;20100;-82
2023/08/18 06:05:28;;;;;;;18.10;6.35;;;18.90;99.10;;;;;;5003587;28;20046;-81
2023/08/18 06:07:56;;;;;;;12.40;6.78;;;18.90;98.90;;;;;;5005080;28;20049;-82
2023/08/18 06:10:23;;;;;;;14.18;6.05;;;18.90;99.20;;;;;;5018428;28;20132;-82
2023/08/18 06:12:51;;;;;;;10.52;5.70;;;18.90;99.40;;;;;;5023729;28;20057;-82
2023/08/18 06:15:19;;;;;;;12.95;6.43;;;18.90;98.80;;;;;;5025003;28;20053;-82
2023/08/18 06:17:47;;;;;;;16.65;5.60;;;18.90;99.10;;;;;;5017946;28;20049;-82
2023/08/18 06:20:15;;;;;;;19.25;6.05;;;19.00;98.90;;;;;;5023677;28;20045;-82
2023/08/18 06:22:42;;;;;;;17.33;6.10;;;19.10;99.20;;;;;;5006803;28;20050;-82
2023/08/18 06:25:11;;;;;;;15.95;5.40;;;19.30;98.30;;;;;;5008362;28;20054;-82
2023/08/18 06:27:38;;;;;;;11.40;5.25;;;19.40;96.90;;;;;;5024651;28;20468;-82
2023/08/18 06:30:06;;;;;;;13.18;5.15;;;19.60;96.60;;;;;;5027948;28;20053;-82
2023/08/18 06:32:33;;;;;;;11.68;5.00;;;19.70;95.70;;;;;;5009903;28;20060;-84
2023/08/18 06:35:00;;;;;;;21.40;5.10;;;20.00;95.00;;;;;;4999769;28;20088;-81
2023/08/18 06:37:27;;;;;;;8.52;4.80;;;20.00;94.00;;;;;;5021647;28;20064;-80
2023/08/18 06:39:54;;;;;;;11.15;4.88;;;20.10;93.30;;;;;;5009631;28;20152;-84
2023/08/18 06:42:21;;;;;;;20.88;5.80;;;20.00;93.90;;;;;;5030326;28;20042;-82
2023/08/18 06:44:48;;;;;;;13.90;4.57;;;20.00;93.80;;;;;;5025287;28;20050;-81
2023/08/18 06:47:15;;;;;;;12.23;4.80;;;20.00;94.20;;;;;;5014053;28;20086;-82
2023/08/18 06:49:42;;;;;;;8.95;4.57;;;20.40;94.00;;;;;;5022753;28;20107;-83
2023/08/18 06:52:09;;;;;;;16.85;4.47;;;20.80;93.10;;;;;;5029564;28;20064;-84
2023/08/18 06:54:35;;;;;;;14.57;4.30;;;21.10;91.30;;;;;;5035878;28;20055;-85
2023/08/18 06:57:02;;;;;;;8.75;4.18;;;21.30;89.20;;;;;;5037453;28;20059;-79
2023/08/18 06:59:29;;;;;;;14.82;4.45;;;21.20;90.50;;;;;;5015464;28;20166;-84
2023/08/18 07:01:56;;;;;;;13.70;4.47;;;21.60;90.30;;;;;;5024896;28;20053;-83
2023/08/18 07:04:23;;;;;;;13.13;4.25;;;22.00;88.80;;;;;;5023433;28;20113;-79
2023/08/18 07:06:50;;;;;;;10.95;4.05;;;22.40;86.20;;;;;;5012527;28;20045;-79
2023/08/18 07:09:17;;;;;;;8.48;3.40;;;22.60;84.80;;;;;;5032582;28;20102;-79
2023/08/18 07:11:44;;;;;;;6.28;3.20;;;22.90;83.80;;;;;;5034793;28;20120;-79
2023/08/18 07:14:11;;;;;;;6.28;3.35;;;23.10;84.10;;;;;;5021235;28;20057;-78
2023/08/18 07:16:38;;;;;;;8.00;3.90;;;23.40;83.50;;;;;;5020662;28;20057;-78
2023/08/18 07:19:07;;;;;;;9.52;3.28;;;23.50;81.20;;;;;;5027113;28;20406;-79
2023/08/18 07:21:34;;;;;;;6.15;3.00;;;23.60;80.90;;;;;;5035277;28;20049;-79
2023/08/18 07:24:01;;;;;;;8.88;3.10;;;23.90;80.60;;;;;;5028016;28;20081;-79
2023/08/18 07:26:29;;;;;;;8.50;3.25;;;24.30;79.20;;;;;;5009956;28;20045;-78
2023/08/18 07:28:56;;;;;;;6.90;3.10;;;24.50;78.20;;;;;;5020121;28;20152;-79
2023/08/18 07:31:23;;;;;;;8.35;3.60;;;25.00;76.60;;;;;;5024298;28;20041;-80
2023/08/18 07:33:51;;;;;;;8.95;3.17;;;25.30;75.50;;;;;;5026331;28;20072;-80
2023/08/18 07:36:21;;;;;;;5.90;3.00;;;25.30;74.20;;;;;;5021770;28;20055;-79
2023/08/18 07:38:47;;;;;;;9.35;3.28;;;25.90;73.90;;;;;;5024809;28;20045;-77
2023/08/18 07:41:14;;;;;;;7.55;2.78;;;26.40;71.30;;;;;;5002900;28;20906;-76
2023/08/18 07:43:41;;;;;;;8.18;3.00;;;26.70;72.10;;;;;;5020950;28;20053;-78
2023/08/18 07:46:10;;;;;;;7.38;3.20;;;27.10;70.10;;;;;;5005066;28;20132;-78
2023/08/18 07:48:38;;;;;;;7.15;2.92;;;27.70;69.80;;;;;;5019499;28;20136;-77
2023/08/18 07:51:05;;;;;;;8.75;3.05;;;27.70;68.50;;;;;;5004354;28;20096;-80
2023/08/18 07:53:32;;;;;;;8.05;3.08;;;28.20;68.50;;;;;;5022123;28;20815;-81
2023/08/18 07:56:04;;;;;;;7.30;3.08;;;28.70;67.80;;;;;;5004601;28;20049;-81
2023/08/18 07:58:31;;;;;;;6.18;3.00;;;29.10;66.20;;;;;;5002264;28;20061;-81
2023/08/18 08:00:57;;;;;;;8.00;3.13;;;29.40;65.10;;;;;;5008920;28;20706;-81
2023/08/18 08:03:24;;;;;;;4.80;3.15;;;29.40;64.90;;;;;;5008963;28;20128;-81
2023/08/18 08:05:51;;;;;;;6.53;2.72;;;29.20;63.70;;;;;;5019047;28;20467;-81
2023/08/18 08:08:18;;;;;;;8.10;3.40;;;29.10;64.60;;;;;;5007764;28;20104;-82
2023/08/18 08:10:45;;;;;;;7.75;3.28;;;28.60;64.90;;;;;;5023317;28;20046;-81
2023/08/18 08:13:12;;;;;;;6.35;3.67;;;28.30;66.70;;;;;;5016957;28;20056;-80
2023/08/18 08:15:39;;;;;;;14.75;3.50;;;28.30;68.20;;;;;;5017810;28;20056;-78
2023/08/18 08:18:06;;;;;;;5.43;3.03;;;28.40;68.10;;;;;;5016792;28;20107;-78
2023/08/18 08:20:38;;;;;;;7.47;3.15;;;28.70;67.10;;;;;;5006965;28;20108;-79
2023/08/18 08:23:05;;;;;;;6.45;3.15;;;28.80;65.80;;;;;;5005729;28;20058;-78
2023/08/18 08:25:33;;;;;;;7.57;3.40;;;28.40;65.50;;;;;;5002010;28;20056;-78
2023/08/18 08:28:01;;;;;;;12.30;3.33;;;27.80;68.10;;;;;;5006239;28;20050;-77
2023/08/18 08:30:28;;;;;;;14.40;3.75;;;27.50;69.30;;;;;;5018596;28;20049;-79
2023/08/18 08:32:58;;;;;;;7.22;3.63;;;27.50;70.60;;;;;;5005824;28;20168;-78
2023/08/18 08:35:25;;;;;;;8.52;3.42;;;27.90;70.40;;;;;;5023175;28;20049;-79
2023/08/18 08:37:56;;;;;;;9.48;3.25;;;28.50;68.20;;;;;;5022605;28;20049;-79
2023/08/18 08:40:23;;;;;;;10.98;3.13;;;28.80;66.90;;;;;;5022729;28;20528;-78
2023/08/18 08:42:53;;;;;;;11.57;3.17;;;29.30;66.30;;;;;;5016133;28;20505;-78
2023/08/18 08:45:22;;;;;;;7.68;3.22;;;29.50;66.00;;;;;;5022973;28;20042;-79
2023/08/18 08:47:50;;;;;;;5.72;3.40;;;29.90;64.50;;;;;;5004572;28;20656;-79
2023/08/18 08:50:18;;;;;;;6.45;3.30;;;30.20;64.10;;;;;;5012766;28;20064;-80
2023/08/18 08:52:51;;;;;;;6.10;2.90;;;30.40;63.80;;;;;;5016137;28;20066;-79
2023/08/18 08:55:22;;;;;;;12.15;3.55;;;30.60;62.40;;;;;;5017699;28;20121;-79
2023/08/18 08:57:49;;;;;;;8.35;3.42;;;30.60;62.30;;;;;;5002658;28;20068;-79
2023/08/18 09:00:16;;;;;;;9.82;4.03;;;30.90;62.00;;;;;;5014330;28;20053;-79
2023/08/18 09:02:43;;;;;;;7.60;3.40;;;31.30;60.40;;;;;;5019133;28;20137;-79
2023/08/18 09:05:11;;;;;;;7.97;3.58;;;31.30;60.90;;;;;;5023218;28;20060;-79
2023/08/18 09:07:37;;;;;;;14.80;3.60;;;31.50;60.40;;;;;;5003662;28;20088;-79
2023/08/18 09:10:06;;;;;;;6.60;3.40;;;31.70;60.50;;;;;;5023563;28;20057;-79
2023/08/18 09:12:33;;;;;;;8.25;3.30;;;32.20;59.10;;;;;;5023999;28;20509;-80
2023/08/18 09:15:01;;;;;;;7.15;3.53;;;32.60;58.60;;;;;;5004981;28;20083;-79
2023/08/18 09:17:28;;;;;;;10.13;3.58;;;32.60;57.80;;;;;;5013666;28;20049;-80
2023/08/18 09:19:59;;;;;;;6.75;3.50;;;32.90;57.50;;;;;;5018844;28;20792;-79
2023/08/18 09:22:27;;;;;;;6.88;3.45;;;33.30;56.40;;;;;;5002046;28;20057;-79
2023/08/18 09:24:56;;;;;;;12.48;3.72;;;33.40;55.90;;;;;;5018423;28;20053;-78
2023/08/18 09:27:24;;;;;;;6.68;3.35;;;33.50;55.70;;;;;;5022865;28;20388;-79
2023/08/18 09:29:52;;;;;;;7.47;3.60;;;33.50;55.60;;;;;;5005684;28;20050;-79
2023/08/18 09:32:22;;;;;;;13.25;3.67;;;33.60;56.30;;;;;;5001627;28;20053;-79
2023/08/18 09:34:51;;;;;;;9.10;3.92;;;33.80;55.50;;;;;;5020043;28;20124;-79
2023/08/18 09:37:31;;;;;;;7.22;3.42;;;33.40;55.60;;;;;;5010919;28;20046;-79
2023/08/18 09:40:00;;;;;;;7.53;3.65;;;33.70;56.30;;;;;;5014436;28;20062;-79
2023/08/18 09:42:28;;;;;;;14.60;3.83;;;34.10;55.40;;;;;;5023802;28;20061;-79
2023/08/18 09:44:55;;;;;;;7.00;3.38;;;34.40;54.70;;;;;;5005294;28;20045;-79
2023/08/18 09:47:24;;;;;;;10.65;4.13;;;34.70;54.60;;;;;;5016136;28;20762;-78
2023/08/18 09:49:52;;;;;;;8.18;4.22;;;34.60;54.50;;;;;;5000431;28;20426;-80
2023/08/18 09:52:22;;;;;;;8.70;4.00;;;35.00;53.40;;;;;;5023711;28;20046;-79
2023/08/18 09:55:03;;;;;;;8.77;3.50;;;35.20;52.70;;;;;;5020057;28;20590;-79
2023/08/18 09:57:39;;;;;;;9.48;4.03;;;35.50;51.70;;;;;;5019454;28;20569;-79
2023/08/18 10:00:09;;;;;;;8.52;3.47;;;35.30;52.50;;;;;;5007054;28;20053;-79
2023/08/18 10:02:38;;;;;;;5.22;3.85;;;35.60;51.90;;;;;;5023616;28;20054;-78
2023/08/18 10:05:05;;;;;;;9.00;3.65;;;35.20;52.70;;;;;;4998983;28;20709;-77
2023/08/18 10:07:33;;;;;;;8.75;4.15;;;35.60;52.20;;;;;;5023646;28;20905;-77
2023/08/18 10:10:00;;;;;;;9.20;4.30;;;35.60;52.10;;;;;;5015946;28;20133;-77
2023/08/18 10:12:27;;;;;;;5.88;4.10;;;35.70;51.80;;;;;;5025922;28;20627;-78
2023/08/18 10:14:56;;;;;;;5.70;3.92;;;35.80;51.50;;;;;;5005923;28;20612;-79
2023/08/18 10:17:24;;;;;;;7.55;3.80;;;36.00;51.50;;;;;;5018436;28;20641;-78
2023/08/18 10:19:54;;;;;;;7.45;4.45;;;36.40;51.50;;;;;;5003324;28;20056;-78
2023/08/18 10:22:24;;;;;;;7.03;4.28;;;36.50;51.10;;;;;;5020962;28;20609;-78
2023/08/18 10:24:52;;;;;;;7.00;4.20;;;36.40;50.40;;;;;;5026602;28;20052;-78
2023/08/18 10:27:28;;;;;;;19.58;5.25;;;36.30;51.00;;;;;;5024195;28;20125;-78
2023/08/18 10:30:15;;;;;;;9.10;4.00;;;36.40;50.50;;;;;;5007301;28;20919;-78
2023/08/18 10:32:42;;;;;;;7.72;4.32;;;36.40;49.90;;;;;;5005513;28;20041;-78
2023/08/18 10:35:27;;;;;;;7.82;4.05;;;36.40;50.90;;;;;;5006533;28;20050;-79
2023/08/18 10:38:04;;;;;;;6.25;4.20;;;36.40;50.70;;;;;;5028658;28;20685;-78
2023/08/18 10:40:34;;;;;;;10.68;4.22;;;36.20;50.80;;;;;;5001088;28;20053;-78
2023/08/18 10:43:08;;;;;;;10.30;4.20;;;36.10;51.20;;;;;;5006341;28;20079;-79
2023/08/18 10:45:36;;;;;;;5.30;4.05;;;36.40;51.00;;;;;;5002281;28;20660;-78
2023/08/18 10:48:05;;;;;;;5.95;4.20;;;36.50;50.30;;;;;;5021578;28;20128;-78
2023/08/18 10:50:36;;;;;;;8.55;4.25;;;37.00;49.30;;;;;;5004322;28;20441;-78
2023/08/18 10:53:04;;;;;;;12.70;4.30;;;36.70;50.70;;;;;;5011098;28;20058;-77
2023/08/18 10:55:32;;;;;;;8.05;4.40;;;37.00;50.80;;;;;;5020535;28;20414;-77
2023/08/18 10:57:59;;;;;;;6.68;4.38;;;37.20;49.80;;;;;;5019843;28;20050;-78
2023/08/18 11:00:35;;;;;;;6.80;4.07;;;37.50;49.10;;;;;;5025271;28;20224;-77
2023/08/18 11:03:05;;;;;;;5.57;4.32;;;37.80;48.80;;;;;;5018187;28;20379;-77
2023/08/18 11:05:32;;;;;;;7.50;4.10;;;37.60;48.10;;;;;;5020063;28;20878;-78
2023/08/18 11:08:00;;;;;;;10.68;4.22;;;37.20;47.90;;;;;;4999024;28;20127;-77
2023/08/18 11:10:28;;;;;;;5.93;3.78;;;37.70;49.00;;;;;;5021893;28;20069;-78
2023/08/18 11:12:59;;;;;;;6.65;3.90;;;38.20;48.00;;;;;;5000666;28;20549;-78
2023/08/18 11:15:26;;;;;;;7.80;4.50;;;38.20;47.60;;;;;;5006778;28;20064;-77
2023/08/18 11:17:53;;;;;;;9.63;4.43;;;38.40;46.60;;;;;;5019750;28;20050;-76
2023/08/18 11:20:21;;;;;;;10.55;4.35;;;37.70;47.80;;;;;;5011009;28;20049;-78
2023/08/18 11:22:53;;;;;;;7.55;4.03;;;37.90;48.00;;;;;;5021455;28;20049;-77
2023/08/18 11:25:22;;;;;;;9.85;4.38;;;38.50;48.00;;;;;;5004922;28;20041;-77
2023/08/18 11:27:52;;;;;;;6.13;4.30;;;38.30;48.60;;;;;;5019224;28;20236;-80
2023/08/18 11:30:20;;;;;;;8.68;4.45;;;38.20;48.00;;;;;;5002920;28;20038;-80
2023/08/18 11:32:48;;;;;;;12.35;4.50;;;38.70;46.50;;;;;;5015650;28;20134;-79
2023/08/18 11:35:18;;;;;;;6.47;4.50;;;38.20;46.60;;;;;;4997426;28;20485;-79
2023/08/18 11:37:47;;;;;;;6.72;4.40;;;37.90;47.60;;;;;;5018554;28;20126;-78
2023/08/18 11:40:18;;;;;;;8.60;4.20;;;37.30;48.30;;;;;;5017592;28;20129;-79
2023/08/18 11:42:47;;;;;;;9.07;4.53;;;38.00;47.50;;;;;;5005956;28;20485;-80
2023/08/18 11:45:15;;;;;;;9.48;4.13;;;38.30;46.80;;;;;;5021905;28;20050;-80
2023/08/18 11:48:03;;;;;;;8.02;4.80;;;38.80;45.90;;;;;;5026116;28;20045;-79
2023/08/18 11:50:34;;;;;;;6.07;4.13;;;39.00;44.80;;;;;;5005984;28;20061;-78
2023/08/18 11:53:03;;;;;;;7.57;4.68;;;39.20;44.40;;;;;;5003895;28;20060;-78
2023/08/18 11:55:35;;;;;;;8.10;4.68;;;39.60;44.90;;;;;;5021971;28;20077;-78
2023/08/18 11:58:08;;;;;;;10.57;4.20;;;39.30;44.80;;;;;;5017580;28;20470;-78
2023/08/18 12:00:37;;;;;;;11.20;5.25;;;39.20;45.50;;;;;;5026052;28;20045;-79
2023/08/18 12:03:06;;;;;;;8.25;3.97;;;39.40;44.60;;;;;;5016247;28;20889;-79
2023/08/18 12:05:42;;;;;;;9.30;4.53;;;39.80;44.80;;;;;;5001350;28;20057;-78
2023/08/18 12:08:10;;;;;;;6.13;3.88;;;40.00;43.10;;;;;;5002754;28;20126;-79
2023/08/18 12:10:37;;;;;;;5.63;4.05;;;40.40;44.30;;;;;;5022618;28;20049;-79
2023/08/18 12:13:04;;;;;;;9.48;3.65;;;40.30;44.00;;;;;;5015647;28;20103;-79
2023/08/18 12:15:33;;;;;;;9.65;4.22;;;40.70;43.40;;;;;;5005961;28;20049;-78
2023/08/18 12:17:59;;;;;;;12.45;4.50;;;40.60;43.60;;;;;;5021586;28;20049;-79
2023/08/18 12:20:26;;;;;;;8.52;4.03;;;40.20;43.40;;;;;;5017647;28;20045;-79
2023/08/18 12:22:53;;;;;;;23.08;4.30;;;40.30;43.70;;;;;;5007292;28;20080;-79
2023/08/18 12:25:22;;;;;;;15.45;4.20;;;40.80;43.00;;;;;;4999917;28;20104;-79
2023/08/18 12:27:50;;;;;;;5.38;3.88;;;40.60;42.90;;;;;;5023959;28;20079;-79
2023/08/18 12:30:19;;;;;;;10.18;4.20;;;40.30;42.90;;;;;;5018798;28;20060;-79
2023/08/18 12:32:49;;;;;;;6.63;3.92;;;40.50;43.20;;;;;;5020525;28;20469;-79
2023/08/18 12:35:17;;;;;;;5.03;4.10;;;39.80;43.60;;;;;;5005328;28;20060;-78
2023/08/18 12:37:44;;;;;;;7.13;4.10;;;40.10;44.50;;;;;;5032451;28;20049;-78
2023/08/18 12:40:11;;;;;;;5.25;4.20;;;40.30;44.10;;;;;;5014825;28;20061;-79